Time;durP1;ratioP1;P1;durP2;ratioP2;P2;SDS_P1;SDS_P2;PMS_P1;PMS_P2;Temp;Humidity;BMP_temperature;BMP_pressure;BME280_temperature;BME280_humidity;BME280_pressure;Samples;Min_cycle;Max_cycle;Signal;HPM_P1;HPM_P2
2021/04/03 00:02:58;;;;;;;4.20;2.13;;;20.90;61.20;;;;;;5026423;28;20030;-61
2021/04/03 00:06:04;;;;;;;5.05;2.00;;;20.90;61.30;;;;;;5026885;28;20030;-66
2021/04/03 00:09:10;;;;;;;6.15;2.42;;;20.90;61.30;;;;;;5023658;28;20025;-63
2021/04/03 00:12:16;;;;;;;9.52;2.55;;;20.90;61.40;;;;;;5026555;28;20392;-64
2021/04/03 00:15:23;;;;;;;6.00;2.30;;;20.90;61.60;;;;;;5025946;28;20555;-62
2021/04/03 00:18:29;;;;;;;7.30;2.35;;;20.90;61.50;;;;;;5026895;28;20036;-66
2021/04/03 00:21:35;;;;;;;7.55;2.90;;;20.90;61.50;;;;;;5028605;28;20163;-61
2021/04/03 00:24:41;;;;;;;6.80;1.85;;;20.80;61.40;;;;;;5025354;28;20064;-62
2021/04/03 00:27:47;;;;;;;6.15;2.72;;;20.80;61.40;;;;;;5026138;28;20024;-63
2021/04/03 00:30:53;;;;;;;11.73;3.42;;;20.80;61.40;;;;;;5027076;28;20075;-64
2021/04/03 00:33:59;;;;;;;10.70;2.63;;;20.80;61.40;;;;;;5026871;28;20393;-62
2021/04/03 00:37:05;;;;;;;7.40;2.42;;;20.80;61.30;;;;;;5028662;28;20026;-62
2021/04/03 00:39:32;;;;;;;8.85;3.13;;;20.80;61.30;;;;;;5029075;28;20033;-62
2021/04/03 00:41:58;;;;;;;7.65;4.30;;;20.70;61.30;;;;;;5029869;28;20480;-62
2021/04/03 00:44:25;;;;;;;8.95;3.47;;;20.70;61.30;;;;;;5027046;28;20060;-66
2021/04/03 00:46:52;;;;;;;8.05;3.42;;;20.70;61.30;;;;;;5026610;28;20026;-62
2021/04/03 00:49:19;;;;;;;14.60;3.65;;;20.70;61.30;;;;;;5025302;28;20022;-61
2021/04/03 00:51:46;;;;;;;8.88;3.15;;;20.70;61.40;;;;;;5026430;28;20030;-62
2021/04/03 00:54:13;;;;;;;9.98;3.15;;;20.70;61.40;;;;;;5025479;28;20079;-62
2021/04/03 00:56:39;;;;;;;7.82;3.70;;;20.60;61.40;;;;;;5024114;28;20534;-62
2021/04/03 00:59:06;;;;;;;9.88;3.33;;;20.60;61.40;;;;;;5029691;28;20025;-65
2021/04/03 01:01:33;;;;;;;11.45;5.00;;;20.70;61.50;;;;;;5024397;28;20034;-65
2021/04/03 01:03:59;;;;;;;7.60;4.03;;;20.60;61.50;;;;;;5024464;28;20465;-62
2021/04/03 01:06:26;;;;;;;9.65;4.70;;;20.60;61.50;;;;;;5028761;28;20567;-66
2021/04/03 01:08:53;;;;;;;9.20;5.63;;;20.60;61.50;;;;;;5027060;28;20056;-62
2021/04/03 01:11:23;;;;;;;12.20;5.70;;;20.60;61.60;;;;;;5023377;28;20088;-62
2021/04/03 01:14:27;;;;;;;13.45;4.95;;;20.60;61.60;;;;;;5028039;28;20084;-62
2021/04/03 01:17:22;;;;;;;8.93;4.93;;;20.60;61.60;;;;;;5011411;28;20038;-62
2021/04/03 01:20:22;;;;;;;11.13;4.63;;;20.60;61.60;;;;;;5025390;28;20038;-62
2021/04/03 01:23:20;;;;;;;17.63;6.75;;;20.60;61.60;;;;;;5026820;28;20431;-64
2021/04/03 01:26:21;;;;;;;11.00;5.13;;;20.50;61.60;;;;;;5018342;28;20026;-62
2021/04/03 01:29:08;;;;;;;9.27;4.40;;;20.50;61.60;;;;;;5024258;28;20052;-62
2021/04/03 01:31:38;;;;;;;11.35;4.60;;;20.50;61.70;;;;;;5025000;28;20030;-63
2021/04/03 01:34:07;;;;;;;10.32;4.88;;;20.50;61.70;;;;;;5027215;28;20389;-62
2021/04/03 01:36:37;;;;;;;11.48;5.05;;;20.50;61.70;;;;;;5025250;28;20477;-62
2021/04/03 01:39:08;;;;;;;14.00;4.75;;;20.50;61.70;;;;;;5028100;28;20026;-62
2021/04/03 01:41:36;;;;;;;11.43;5.35;;;20.50;61.80;;;;;;5023636;28;20416;-63
2021/04/03 01:44:06;;;;;;;12.20;5.43;;;20.50;61.80;;;;;;5026549;28;20037;-63
2021/04/03 01:46:35;;;;;;;9.80;4.10;;;20.50;61.80;;;;;;5024199;28;20049;-62
2021/04/03 01:49:06;;;;;;;8.27;3.88;;;20.50;61.80;;;;;;5021181;28;20025;-62
2021/04/03 01:51:33;;;;;;;5.22;3.30;;;20.50;61.80;;;;;;5024078;28;20020;-63
2021/04/03 01:54:00;;;;;;;7.68;3.25;;;20.50;61.90;;;;;;5026586;28;20599;-63
2021/04/03 01:56:28;;;;;;;10.48;3.85;;;20.50;62.00;;;;;;5026550;28;20594;-63
2021/04/03 01:58:56;;;;;;;5.95;3.60;;;20.40;61.90;;;;;;5025626;28;20025;-62
2021/04/03 02:01:23;;;;;;;9.80;3.55;;;20.40;61.90;;;;;;5027018;28;20029;-63
2021/04/03 02:03:50;;;;;;;10.57;2.88;;;20.40;62.00;;;;;;5022188;28;20402;-62
2021/04/03 02:06:17;;;;;;;6.20;3.13;;;20.40;62.00;;;;;;5026954;28;20067;-62
2021/04/03 02:08:46;;;;;;;6.07;2.28;;;20.40;62.10;;;;;;5023927;28;20052;-62
2021/04/03 02:11:13;;;;;;;6.43;2.78;;;20.40;62.10;;;;;;5023571;28;20393;-62
2021/04/03 02:13:41;;;;;;;6.28;2.88;;;20.40;62.10;;;;;;5021429;28;20030;-63
2021/04/03 02:16:08;;;;;;;5.35;2.22;;;20.40;62.10;;;;;;5023343;28;20032;-62
2021/04/03 02:18:38;;;;;;;8.73;2.60;;;20.40;62.10;;;;;;5025414;28;20026;-63
2021/04/03 02:21:06;;;;;;;6.97;2.70;;;20.40;62.10;;;;;;5021022;28;20010;-63
2021/04/03 02:23:34;;;;;;;8.27;2.40;;;20.40;62.10;;;;;;5026374;28;20030;-63
2021/04/03 02:26:00;;;;;;;9.63;2.95;;;20.40;62.10;;;;;;5021180;28;20014;-64
2021/04/03 02:28:27;;;;;;;6.85;2.20;;;20.40;62.10;;;;;;5021229;28;20010;-63
2021/04/03 02:30:54;;;;;;;12.02;3.03;;;20.40;62.10;;;;;;5024648;28;20025;-62
2021/04/03 02:33:21;;;;;;;7.65;1.95;;;20.40;62.10;;;;;;5022656;28;20053;-63
2021/04/03 02:35:48;;;;;;;5.38;1.58;;;20.30;62.00;;;;;;5025566;28;20045;-62
2021/04/03 02:38:16;;;;;;;11.68;2.33;;;20.30;62.00;;;;;;5022225;28;20018;-62
2021/04/03 02:40:43;;;;;;;7.70;2.25;;;20.30;62.00;;;;;;5022778;28;20041;-64
2021/04/03 02:43:32;;;;;;;9.27;7.35;;;20.30;62.00;;;;;;5023368;28;20021;-65
2021/04/03 02:46:10;;;;;;;18.02;12.90;;;20.30;62.00;;;;;;5022422;28;20472;-63
2021/04/03 02:48:39;;;;;;;16.17;10.73;;;20.30;62.10;;;;;;5022659;28;20053;-65
2021/04/03 02:51:08;;;;;;;11.93;7.25;;;20.30;62.10;;;;;;5021769;28;20076;-64
2021/04/03 02:53:36;;;;;;;11.65;5.45;;;20.30;62.00;;;;;;5023025;28;20037;-65
2021/04/03 02:56:06;;;;;;;7.93;4.13;;;20.30;62.10;;;;;;5025016;28;20032;-62
2021/04/03 02:58:36;;;;;;;5.90;3.65;;;20.30;62.10;;;;;;5026891;28;20396;-67
2021/04/03 03:01:07;;;;;;;6.28;3.35;;;20.30;62.10;;;;;;5021119;28;20496;-64
2021/04/03 03:03:35;;;;;;;4.60;2.72;;;20.30;62.10;;;;;;5024357;28;20048;-62
2021/04/03 03:06:03;;;;;;;7.43;2.80;;;20.30;62.10;;;;;;5024388;28;20025;-64
2021/04/03 03:08:32;;;;;;;5.68;2.65;;;20.30;62.10;;;;;;5020125;28;20045;-65
2021/04/03 03:10:58;;;;;;;8.65;2.63;;;20.20;62.20;;;;;;5027756;28;20028;-63
2021/04/03 03:13:26;;;;;;;6.15;2.40;;;20.20;62.20;;;;;;5026028;28;20044;-62
2021/04/03 03:15:52;;;;;;;5.68;2.88;;;20.20;62.30;;;;;;5025906;28;20025;-65
2021/04/03 03:18:20;;;;;;;10.10;3.25;;;20.20;62.30;;;;;;5034586;28;20052;-66
2021/04/03 03:20:47;;;;;;;6.25;3.00;;;20.20;62.30;;;;;;5024566;28;20025;-63
2021/04/03 03:23:15;;;;;;;7.45;3.28;;;20.20;62.20;;;;;;5024616;28;20500;-62
2021/04/03 03:25:42;;;;;;;9.10;3.72;;;20.20;62.20;;;;;;5030021;28;20037;-61
2021/04/03 03:28:10;;;;;;;7.72;3.60;;;20.20;62.20;;;;;;5029493;28;20025;-69
2021/04/03 03:30:37;;;;;;;16.80;11.52;;;20.20;62.20;;;;;;5028592;28;20034;-62
2021/04/03 03:33:04;;;;;;;37.03;29.55;;;20.10;62.20;;;;;;5030268;28;20037;-61
2021/04/03 03:35:31;;;;;;;33.58;25.90;;;20.10;62.20;;;;;;5028240;28;20030;-62
2021/04/03 03:37:58;;;;;;;20.95;16.38;;;20.10;62.30;;;;;;5026534;28;20026;-68
2021/04/03 03:40:25;;;;;;;17.65;13.02;;;20.10;62.30;;;;;;5028829;28;20021;-62
2021/04/03 03:42:53;;;;;;;10.05;8.00;;;20.10;62.30;;;;;;5027673;28;20165;-62
2021/04/03 03:45:21;;;;;;;9.15;6.07;;;20.10;62.40;;;;;;5027978;28;20014;-62
2021/04/03 03:47:48;;;;;;;5.38;3.78;;;20.10;62.40;;;;;;5027863;28;20030;-70
2021/04/03 03:50:15;;;;;;;7.10;3.50;;;20.10;62.50;;;;;;5026489;28;20080;-62
2021/04/03 03:52:42;;;;;;;7.25;2.92;;;20.10;62.50;;;;;;5024440;28;20082;-63
2021/04/03 03:55:09;;;;;;;8.38;3.97;;;20.00;62.50;;;;;;5025559;28;20042;-63
2021/04/03 03:57:35;;;;;;;6.65;3.20;;;20.10;62.60;;;;;;5029367;28;20460;-63
2021/04/03 04:00:04;;;;;;;24.33;21.10;;;20.00;62.50;;;;;;5024273;28;20079;-63
2021/04/03 04:02:31;;;;;;;25.20;21.85;;;20.00;62.60;;;;;;5025028;28;20018;-67
2021/04/03 04:04:57;;;;;;;20.98;13.00;;;20.00;62.60;;;;;;5027068;28;20049;-68
2021/04/03 04:07:24;;;;;;;10.70;9.52;;;20.00;62.60;;;;;;5028949;28;20485;-67
2021/04/03 04:09:50;;;;;;;8.27;5.93;;;20.00;62.70;;;;;;5026785;28;20057;-65
2021/04/03 04:12:17;;;;;;;7.22;3.97;;;20.00;62.60;;;;;;5026490;28;20065;-63
2021/04/03 04:14:43;;;;;;;7.57;4.05;;;20.00;62.60;;;;;;5025819;28;20022;-73
2021/04/03 04:17:10;;;;;;;4.97;2.38;;;19.90;62.60;;;;;;5028158;28;20025;-62
2021/04/03 04:19:37;;;;;;;3.60;2.03;;;20.00;62.60;;;;;;5028958;28;20018;-63
2021/04/03 04:22:03;;;;;;;4.32;1.92;;;20.00;62.60;;;;;;5026856;28;20025;-63
2021/04/03 04:24:30;;;;;;;2.15;1.33;;;19.90;62.50;;;;;;5025495;28;20032;-70
2021/04/03 04:26:56;;;;;;;3.45;1.38;;;19.90;62.60;;;;;;5028293;28;20017;-68
2021/04/03 04:29:23;;;;;;;4.13;1.60;;;19.90;62.50;;;;;;5027352;28;20096;-66
2021/04/03 04:31:50;;;;;;;2.80;0.98;;;19.90;62.60;;;;;;5022673;28;20034;-70
2021/04/03 04:34:16;;;;;;;3.92;1.02;;;19.90;62.60;;;;;;5038651;28;20065;-63
2021/04/03 04:36:43;;;;;;;4.32;1.20;;;19.90;62.60;;;;;;5026618;28;20152;-62
2021/04/03 04:39:10;;;;;;;5.88;1.40;;;19.90;62.60;;;;;;5022754;28;20026;-67
2021/04/03 04:41:37;;;;;;;3.70;1.45;;;19.90;62.60;;;;;;5023964;28;20018;-65
2021/04/03 04:44:04;;;;;;;6.57;1.23;;;19.90;62.40;;;;;;5027960;28;20030;-63
2021/04/03 04:46:31;;;;;;;5.55;1.80;;;19.90;62.40;;;;;;5023756;28;20025;-62
2021/04/03 04:48:58;;;;;;;7.88;4.95;;;19.90;62.40;;;;;;5029183;28;20049;-62
2021/04/03 04:51:25;;;;;;;12.65;8.80;;;19.80;62.30;;;;;;5029145;28;20433;-63
2021/04/03 04:53:51;;;;;;;12.68;6.65;;;19.80;62.40;;;;;;5021527;28;20041;-62
2021/04/03 04:56:18;;;;;;;11.10;4.90;;;19.80;62.40;;;;;;5025271;28;20503;-61
2021/04/03 04:58:44;;;;;;;5.45;3.03;;;19.80;62.40;;;;;;5025516;28;20030;-62
2021/04/03 05:01:11;;;;;;;8.55;2.70;;;19.80;62.40;;;;;;5023905;28;20037;-64
2021/04/03 05:03:38;;;;;;;5.57;1.77;;;19.80;62.40;;;;;;5026129;28;20488;-65
2021/04/03 05:06:04;;;;;;;3.65;1.40;;;19.80;62.40;;;;;;5024114;28;20068;-64
2021/04/03 05:08:31;;;;;;;4.15;1.65;;;19.80;62.30;;;;;;5027992;28;20018;-65
2021/04/03 05:10:57;;;;;;;2.83;1.50;;;19.80;62.40;;;;;;5024142;28;20026;-65
2021/04/03 05:13:24;;;;;;;5.90;1.83;;;19.80;62.40;;;;;;5025507;28;20131;-64
2021/04/03 05:15:55;;;;;;;6.20;2.40;;;19.80;62.40;;;;;;5024171;28;20025;-69
2021/04/03 05:18:22;;;;;;;5.45;1.88;;;19.80;62.60;;;;;;5025524;28;20043;-64
2021/04/03 05:20:49;;;;;;;8.23;2.08;;;19.70;62.60;;;;;;5025284;28;20108;-65
2021/04/03 05:23:19;;;;;;;6.95;4.05;;;19.70;62.70;;;;;;5030282;28;20057;-64
2021/04/03 05:25:46;;;;;;;6.18;2.42;;;19.70;62.90;;;;;;5024576;28;20068;-67
2021/04/03 05:28:16;;;;;;;7.50;2.67;;;19.70;63.40;;;;;;5024163;28;20432;-64
2021/04/03 05:30:43;;;;;;;5.47;2.58;;;19.70;63.10;;;;;;5023634;28;20028;-64
2021/04/03 05:33:10;;;;;;;8.63;2.97;;;19.80;63.20;;;;;;5025589;28;20080;-63
2021/04/03 05:35:37;;;;;;;7.10;2.80;;;19.70;63.30;;;;;;5029308;28;20036;-63
2021/04/03 05:38:04;;;;;;;5.03;2.90;;;19.70;63.30;;;;;;5026963;28;20033;-64
2021/04/03 05:40:31;;;;;;;15.00;6.75;;;19.70;63.40;;;;;;5029770;28;20028;-63
2021/04/03 05:43:02;;;;;;;16.23;10.15;;;19.80;63.40;;;;;;5028394;28;20025;-63
2021/04/03 05:45:29;;;;;;;16.55;7.28;;;19.70;63.40;;;;;;5022766;28;20026;-67
2021/04/03 05:47:58;;;;;;;13.95;6.65;;;19.70;63.50;;;;;;5023880;28;20018;-66
2021/04/03 05:50:25;;;;;;;15.07;6.90;;;19.70;63.80;;;;;;5031005;28;20083;-66
2021/04/03 05:52:51;;;;;;;9.70;5.63;;;19.70;63.90;;;;;;5025793;28;20041;-64
2021/04/03 05:55:18;;;;;;;10.77;5.15;;;19.70;64.00;;;;;;5026548;28;20018;-65
2021/04/03 05:57:45;;;;;;;12.02;6.75;;;19.70;64.00;;;;;;5021403;28;20113;-68
2021/04/03 06:00:12;;;;;;;10.15;6.05;;;19.70;64.00;;;;;;5022892;28;20196;-71
2021/04/03 06:02:40;;;;;;;10.80;5.88;;;19.70;64.10;;;;;;5021470;28;20032;-65
2021/04/03 06:05:08;;;;;;;13.98;9.05;;;19.80;64.20;;;;;;5022219;28;20500;-65
2021/04/03 06:07:35;;;;;;;19.98;9.63;;;19.70;64.10;;;;;;5028473;28;20068;-64
2021/04/03 06:10:05;;;;;;;15.32;8.48;;;19.70;64.10;;;;;;5019773;28;20506;-64
2021/04/03 06:12:42;;;;;;;15.10;8.00;;;19.70;64.10;;;;;;5020970;28;20037;-64
2021/04/03 06:15:33;;;;;;;18.35;8.40;;;19.80;64.20;;;;;;5025912;28;20036;-66
2021/04/03 06:18:01;;;;;;;15.77;6.93;;;19.70;64.10;;;;;;5041084;28;20102;-66
2021/04/03 06:20:36;;;;;;;13.10;7.53;;;19.80;64.30;;;;;;5024034;28;20033;-65
2021/04/03 06:23:04;;;;;;;23.05;13.35;;;19.70;64.30;;;;;;5028833;28;20049;-63
2021/04/03 06:25:31;;;;;;;24.73;14.85;;;19.80;64.40;;;;;;5027059;28;20021;-64
2021/04/03 06:28:31;;;;;;;21.08;14.25;;;19.80;64.60;;;;;;5025687;28;20099;-63
2021/04/03 06:31:20;;;;;;;18.30;11.35;;;19.80;64.60;;;;;;5021970;28;20013;-63
2021/04/03 06:33:46;;;;;;;18.25;10.35;;;19.80;64.70;;;;;;5024520;28;20034;-65
2021/04/03 06:36:20;;;;;;;13.23;8.95;;;19.80;64.80;;;;;;5028021;28;20029;-65
2021/04/03 06:38:47;;;;;;;21.58;9.07;;;19.90;64.70;;;;;;5023015;28;20033;-66
2021/04/03 06:41:23;;;;;;;16.08;8.43;;;19.90;64.80;;;;;;5030352;28;20041;-64
2021/04/03 06:44:12;;;;;;;16.50;10.57;;;19.90;64.80;;;;;;5038064;28;20037;-63
2021/04/03 06:46:41;;;;;;;18.45;8.40;;;19.90;64.90;;;;;;5027963;28;20125;-65
2021/04/03 06:49:09;;;;;;;13.60;7.63;;;19.90;64.80;;;;;;5029977;28;20369;-64
2021/04/03 06:51:36;;;;;;;15.43;6.70;;;20.00;64.90;;;;;;5024628;28;20026;-65
2021/04/03 06:54:06;;;;;;;18.05;7.57;;;20.00;64.80;;;;;;5027695;28;20489;-64
2021/04/03 06:56:34;;;;;;;15.52;6.95;;;20.00;64.80;;;;;;5025445;28;20531;-67
2021/04/03 06:59:09;;;;;;;13.82;7.00;;;20.10;64.80;;;;;;5031838;28;20033;-64
2021/04/03 07:01:46;;;;;;;11.70;6.50;;;20.10;64.80;;;;;;5028516;28;20550;-63
2021/04/03 07:04:27;;;;;;;13.77;7.43;;;20.20;64.80;;;;;;5029404;28;20018;-65
2021/04/03 07:06:55;;;;;;;8.77;5.68;;;20.20;64.80;;;;;;5024144;28;20018;-64
2021/04/03 07:09:23;;;;;;;13.15;5.90;;;20.20;64.80;;;;;;5029683;28;20016;-64
2021/04/03 07:11:51;;;;;;;9.98;5.05;;;20.30;64.80;;;;;;5028900;28;20029;-64
2021/04/03 07:14:21;;;;;;;14.35;10.68;;;20.30;64.90;;;;;;5029537;28;20033;-64
2021/04/03 07:16:49;;;;;;;22.48;14.55;;;20.30;64.90;;;;;;5027266;28;20026;-63
2021/04/03 07:19:18;;;;;;;18.17;12.88;;;20.40;64.90;;;;;;5027750;28;20046;-63
2021/04/03 07:21:45;;;;;;;19.80;11.68;;;20.40;64.80;;;;;;5029847;28;20143;-63
2021/04/03 07:24:15;;;;;;;15.60;10.88;;;20.40;64.60;;;;;;5029545;28;20033;-64
2021/04/03 07:26:50;;;;;;;13.68;9.55;;;20.50;64.60;;;;;;5028893;28;20028;-63
2021/04/03 07:29:41;;;;;;;13.25;9.40;;;20.50;64.40;;;;;;5026836;28;20026;-62
2021/04/03 07:32:08;;;;;;;12.35;8.50;;;20.60;64.10;;;;;;5027205;28;20046;-62
2021/04/03 07:34:42;;;;;;;12.30;7.43;;;20.60;63.80;;;;;;5029325;28;20034;-62
2021/04/03 07:37:12;;;;;;;7.75;5.97;;;20.70;63.40;;;;;;5024977;28;20125;-64
2021/04/03 07:39:40;;;;;;;9.77;6.30;;;20.70;62.90;;;;;;5019474;28;20064;-63
2021/04/03 07:42:07;;;;;;;11.50;6.32;;;20.70;62.60;;;;;;5026381;28;20485;-63
2021/04/03 07:44:35;;;;;;;9.45;4.90;;;20.70;62.00;;;;;;5028093;28;20053;-67
2021/04/03 07:47:19;;;;;;;7.65;5.28;;;20.80;61.50;;;;;;5034174;28;20350;-67
2021/04/03 07:49:45;;;;;;;6.90;4.15;;;20.80;61.10;;;;;;5024702;28;20574;-63
2021/04/03 07:52:12;;;;;;;7.70;3.72;;;20.80;60.90;;;;;;5032010;28;20064;-65
2021/04/03 07:54:40;;;;;;;6.38;3.53;;;20.90;60.90;;;;;;5030650;28;20091;-63
2021/04/03 07:57:09;;;;;;;7.65;3.20;;;20.90;60.70;;;;;;5028073;28;20021;-64
2021/04/03 07:59:48;;;;;;;5.65;3.17;;;21.00;60.30;;;;;;5030797;28;20080;-66
2021/04/03 08:02:17;;;;;;;6.35;3.30;;;21.00;59.60;;;;;;5020945;28;20068;-66
2021/04/03 08:04:44;;;;;;;7.10;2.83;;;21.10;59.00;;;;;;5029258;28;20030;-66
2021/04/03 08:07:11;;;;;;;7.13;2.60;;;21.10;58.50;;;;;;5023303;28;20472;-62
2021/04/03 08:09:38;;;;;;;6.00;2.55;;;21.20;58.20;;;;;;5028965;28;20032;-65
2021/04/03 08:12:06;;;;;;;6.72;2.88;;;21.20;58.00;;;;;;5023010;28;20028;-66
2021/04/03 08:14:35;;;;;;;7.35;2.83;;;21.20;57.70;;;;;;5027143;28;20022;-69
2021/04/03 08:17:04;;;;;;;6.25;1.60;;;21.30;57.80;;;;;;5033454;28;20057;-69
2021/04/03 08:19:34;;;;;;;8.55;3.38;;;21.30;57.50;;;;;;5028162;28;20124;-65
2021/04/03 08:22:01;;;;;;;7.28;2.10;;;21.40;57.10;;;;;;5027498;28;20105;-64
2021/04/03 08:24:28;;;;;;;5.63;2.42;;;21.40;56.80;;;;;;5041528;28;20033;-69
2021/04/03 08:26:55;;;;;;;3.83;1.90;;;21.40;56.50;;;;;;5029126;28;20476;-70
2021/04/03 08:29:38;;;;;;;5.05;2.05;;;21.50;56.40;;;;;;5025788;28;20108;-69
2021/04/03 08:32:05;;;;;;;9.43;2.10;;;21.50;56.30;;;;;;5028988;28;20045;-70
2021/04/03 08:34:32;;;;;;;6.55;1.48;;;21.60;56.40;;;;;;5031931;28;20481;-64
2021/04/03 08:36:59;;;;;;;7.35;2.38;;;21.60;56.00;;;;;;5030285;28;20022;-64
2021/04/03 08:39:27;;;;;;;8.13;2.58;;;21.70;55.90;;;;;;5027318;28;20408;-71
2021/04/03 08:41:56;;;;;;;6.05;2.20;;;21.70;55.80;;;;;;5027839;28;20032;-67
2021/04/03 08:44:32;;;;;;;7.28;2.33;;;21.70;56.00;;;;;;5032354;28;20119;-67
2021/04/03 08:47:01;;;;;;;13.30;2.92;;;21.70;56.20;;;;;;5029949;28;20519;-62
2021/04/03 08:49:34;;;;;;;8.02;2.95;;;21.80;56.50;;;;;;5026859;28;20025;-69
2021/04/03 08:52:00;;;;;;;9.35;2.80;;;21.80;57.00;;;;;;5023191;28;20473;-70
2021/04/03 08:54:47;;;;;;;16.17;3.97;;;21.80;57.50;;;;;;5029400;28;20041;-67
2021/04/03 08:57:24;;;;;;;8.68;3.38;;;21.90;58.40;;;;;;5019700;28;20027;-69
2021/04/03 08:59:51;;;;;;;9.20;4.65;;;21.90;58.70;;;;;;5025343;28;20022;-69
2021/04/03 09:02:17;;;;;;;12.13;4.78;;;22.00;59.20;;;;;;5023857;28;20037;-70
2021/04/03 09:04:44;;;;;;;11.10;3.60;;;22.00;59.20;;;;;;5030504;28;20480;-68
2021/04/03 09:07:10;;;;;;;11.75;3.65;;;22.00;59.10;;;;;;5026894;28;20033;-67
2021/04/03 09:09:38;;;;;;;9.82;3.60;;;22.10;59.00;;;;;;5026763;28;20022;-65
2021/04/03 09:12:10;;;;;;;11.57;3.67;;;22.10;59.00;;;;;;5031614;28;20049;-67
2021/04/03 09:14:49;;;;;;;11.30;3.22;;;22.10;58.80;;;;;;5027111;28;20029;-67
2021/04/03 09:17:21;;;;;;;9.18;3.17;;;22.10;58.70;;;;;;5023768;28;20459;-68
2021/04/03 09:19:48;;;;;;;15.00;4.25;;;22.20;58.70;;;;;;5023417;28;20144;-66
2021/04/03 09:22:20;;;;;;;15.15;5.53;;;22.20;58.50;;;;;;5027191;28;20013;-70
2021/04/03 09:24:58;;;;;;;12.35;3.20;;;22.20;58.20;;;;;;5027376;28;20025;-65
2021/04/03 09:27:28;;;;;;;14.07;4.35;;;22.30;58.00;;;;;;5027078;28;20036;-67
2021/04/03 09:30:06;;;;;;;12.48;3.42;;;22.30;57.60;;;;;;5025333;28;20491;-67
2021/04/03 09:32:48;;;;;;;9.57;3.05;;;22.40;57.40;;;;;;5023804;28;20085;-67
2021/04/03 09:35:23;;;;;;;5.50;2.80;;;22.40;56.80;;;;;;5030832;28;20368;-68
2021/04/03 09:38:00;;;;;;;8.20;3.65;;;22.40;56.60;;;;;;5026113;28;20021;-67
2021/04/03 09:40:42;;;;;;;14.43;3.42;;;22.50;56.30;;;;;;5024622;28;20046;-67
2021/04/03 09:43:18;;;;;;;10.13;2.67;;;22.50;55.90;;;;;;5027385;28;20128;-67
2021/04/03 09:45:44;;;;;;;7.72;2.05;;;22.60;55.70;;;;;;5028294;28;20507;-67
2021/04/03 09:48:11;;;;;;;11.75;3.45;;;22.60;55.80;;;;;;5024180;28;20029;-68
2021/04/03 09:50:40;;;;;;;8.85;2.50;;;22.60;55.70;;;;;;5025361;28;20139;-67
2021/04/03 09:53:13;;;;;;;4.88;2.13;;;22.70;55.50;;;;;;5028294;28;20037;-68
2021/04/03 09:55:40;;;;;;;7.05;3.22;;;22.80;55.40;;;;;;5020906;28;20481;-68
2021/04/03 09:58:06;;;;;;;8.68;2.97;;;22.80;55.20;;;;;;5024656;28;20051;-68
2021/04/03 10:00:33;;;;;;;8.55;2.70;;;22.90;54.80;;;;;;5031458;28;20029;-67
2021/04/03 10:03:00;;;;;;;12.10;2.97;;;22.90;54.70;;;;;;5023422;28;20576;-69
2021/04/03 10:05:27;;;;;;;8.95;2.75;;;23.00;54.70;;;;;;5019004;28;20071;-69
2021/04/03 10:07:53;;;;;;;6.57;2.80;;;23.00;54.50;;;;;;5027091;28;20033;-67
2021/04/03 10:10:20;;;;;;;7.35;2.83;;;23.10;54.60;;;;;;5024113;28;20025;-69
2021/04/03 10:12:46;;;;;;;5.70;2.30;;;23.10;54.40;;;;;;5028150;28;20030;-69
2021/04/03 10:15:13;;;;;;;6.82;2.05;;;23.20;54.00;;;;;;5027549;28;20022;-68
2021/04/03 10:17:40;;;;;;;6.18;2.90;;;23.30;54.00;;;;;;5024069;28;20049;-68
2021/04/03 10:20:07;;;;;;;5.57;1.98;;;23.40;53.60;;;;;;5019986;28;20041;-68
2021/04/03 10:22:33;;;;;;;7.32;2.72;;;23.40;53.20;;;;;;5025025;28;20025;-67
2021/04/03 10:25:00;;;;;;;8.65;2.33;;;23.40;52.90;;;;;;5022873;28;20491;-67
2021/04/03 10:27:26;;;;;;;6.32;2.05;;;23.50;53.00;;;;;;5021439;28;20048;-68
2021/04/03 10:29:53;;;;;;;4.88;1.75;;;23.60;52.90;;;;;;5027899;28;20040;-65
2021/04/03 10:32:19;;;;;;;5.85;1.90;;;23.60;52.40;;;;;;5026367;28;20054;-66
2021/04/03 10:34:47;;;;;;;5.75;1.67;;;23.70;52.40;;;;;;5027111;28;20053;-66
2021/04/03 10:37:14;;;;;;;4.75;1.90;;;23.70;52.30;;;;;;5026829;28;20018;-68
2021/04/03 10:39:41;;;;;;;4.18;1.63;;;23.80;52.10;;;;;;5026565;28;20447;-69
2021/04/03 10:42:08;;;;;;;6.65;2.45;;;23.80;51.90;;;;;;5023204;28;20705;-65
2021/04/03 10:44:34;;;;;;;6.28;2.58;;;23.90;51.80;;;;;;5025793;28;20025;-62
2021/04/03 10:47:01;;;;;;;5.72;2.38;;;23.90;51.40;;;;;;5023713;28;20408;-68
2021/04/03 10:49:28;;;;;;;4.35;2.28;;;23.90;51.60;;;;;;5021871;28;20059;-67
2021/04/03 10:51:55;;;;;;;4.38;2.00;;;24.00;51.60;;;;;;5025763;28;20026;-63
2021/04/03 10:54:22;;;;;;;6.40;2.05;;;24.00;51.40;;;;;;5020180;28;20511;-63
2021/04/03 10:56:49;;;;;;;10.68;3.50;;;24.10;51.50;;;;;;5016996;28;20026;-62
2021/04/03 10:59:16;;;;;;;5.43;1.80;;;24.10;51.60;;;;;;5027093;28;20022;-62
2021/04/03 11:01:43;;;;;;;7.13;1.60;;;24.20;51.50;;;;;;5027728;28;20680;-65
2021/04/03 11:04:09;;;;;;;4.22;1.40;;;24.20;51.00;;;;;;5024467;28;20036;-62
2021/04/03 11:06:36;;;;;;;3.53;1.90;;;24.20;50.10;;;;;;5019236;28;20028;-63
2021/04/03 11:09:04;;;;;;;4.40;1.42;;;24.30;50.20;;;;;;5028890;28;20746;-65
2021/04/03 11:11:31;;;;;;;5.10;2.25;;;24.30;50.10;;;;;;5018882;28;20072;-65
2021/04/03 11:13:58;;;;;;;6.45;2.00;;;24.40;49.70;;;;;;5025605;28;20034;-65
2021/04/03 11:16:26;;;;;;;9.88;2.17;;;24.40;49.50;;;;;;5028965;28;20021;-65
2021/04/03 11:18:53;;;;;;;7.10;2.42;;;24.40;49.20;;;;;;5021853;28;20030;-67
2021/04/03 11:22:00;;;;;;;8.32;1.60;;;24.50;49.20;;;;;;5022965;28;20133;-69
2021/04/03 11:24:45;;;;;;;;;;;24.50;49.00;;;;;;5023470;28;20498;-66
2021/04/03 11:27:51;;;;;;;5.38;1.90;;;24.60;48.70;;;;;;5020372;28;19917;-65
2021/04/03 11:30:37;;;;;;;;;;;24.60;48.20;;;;;;5028897;28;20025;-65
2021/04/03 11:33:44;;;;;;;4.30;1.20;;;24.70;48.40;;;;;;5027402;28;19924;-65
2021/04/03 11:36:50;;;;;;;6.20;1.55;;;24.70;48.40;;;;;;5027330;28;20384;-66
2021/04/03 11:39:36;;;;;;;;;;;24.80;48.50;;;;;;5032307;28;20029;-66
2021/04/03 11:42:42;;;;;;;1.98;1.27;;;24.80;48.30;;;;;;5027093;28;19909;-64
2021/04/03 11:45:48;;;;;;;7.57;1.65;;;24.90;48.40;;;;;;5032641;28;20029;-66
2021/04/03 11:48:34;;;;;;;;;;;25.00;48.40;;;;;;5031514;28;20044;-63
2021/04/03 11:51:40;;;;;;;3.83;1.23;;;25.00;48.40;;;;;;5021822;28;19953;-62
2021/04/03 11:54:26;;;;;;;;;;;25.10;48.00;;;;;;5028824;28;20047;-62
2021/04/03 11:57:32;;;;;;;6.53;2.08;;;25.10;48.00;;;;;;5024875;28;19936;-62
2021/04/03 12:00:19;;;;;;;;;;;25.10;48.10;;;;;;5023142;28;20026;-62
2021/04/03 12:03:25;;;;;;;4.50;1.33;;;25.10;48.10;;;;;;5026071;28;19909;-62
2021/04/03 12:06:11;;;;;;;;;;;25.20;48.20;;;;;;5025411;28;20030;-62
2021/04/03 12:09:17;;;;;;;6.70;1.42;;;25.30;48.20;;;;;;5025068;28;19916;-62
2021/04/03 12:12:05;;;;;;;;;;;25.30;48.00;;;;;;5023551;28;20583;-63
2021/04/03 12:15:11;;;;;;;10.43;3.00;;;25.40;48.70;;;;;;5026177;28;20310;-62
2021/04/03 12:17:57;;;;;;;;;;;25.40;47.80;;;;;;5026386;28;20104;-62
2021/04/03 12:21:03;;;;;;;4.57;1.45;;;25.40;47.10;;;;;;5032112;28;20343;-62
2021/04/03 12:23:49;;;;;;;;;;;25.40;46.80;;;;;;5036791;28;20029;-62
2021/04/03 12:26:55;;;;;;;3.58;1.30;;;25.40;46.80;;;;;;5031145;28;19953;-62
2021/04/03 12:29:41;;;;;;;;;;;25.50;46.90;;;;;;5030275;28;20518;-63
2021/04/03 12:32:47;;;;;;;6.57;1.48;;;25.50;46.90;;;;;;5019523;28;19964;-63
2021/04/03 12:35:53;;;;;;;5.60;1.45;;;25.60;46.90;;;;;;5030514;28;20029;-63
2021/04/03 12:38:59;;;;;;;5.32;1.88;;;25.60;46.70;;;;;;5027561;28;20507;-62
2021/04/03 12:42:05;;;;;;;4.20;1.30;;;25.70;46.50;;;;;;5025997;28;20024;-67
2021/04/03 12:44:51;;;;;;;;;;;25.80;46.50;;;;;;5028922;28;20504;-62
2021/04/03 12:47:57;;;;;;;2.22;1.20;;;25.80;46.40;;;;;;5025919;28;20004;-62
2021/04/03 12:50:43;;;;;;;;;;;25.90;46.00;;;;;;5024422;28;20563;-65
2021/04/03 12:53:49;;;;;;;2.80;1.48;;;25.90;45.80;;;;;;5028164;28;19917;-63
2021/04/03 12:56:55;;;;;;;2.85;1.30;;;25.90;45.90;;;;;;5026676;28;20472;-62
2021/04/03 12:59:41;;;;;;;;;;;26.00;45.80;;;;;;5025547;28;20469;-62
2021/04/03 13:02:47;;;;;;;8.80;1.35;;;26.00;45.60;;;;;;5029856;28;19909;-62
2021/04/03 13:05:34;;;;;;;;;;;26.00;45.70;;;;;;5026861;28;20056;-66
2021/04/03 13:08:40;;;;;;;7.32;2.42;;;26.00;45.70;;;;;;5029723;28;20348;-63
2021/04/03 13:11:26;;;;;;;;;;;26.00;45.60;;;;;;5029361;28;20480;-67
2021/04/03 13:14:12;;;;;;;;;;;26.00;45.70;;;;;;5025033;28;19917;-62
2021/04/03 13:17:18;;;;;;;8.85;1.45;;;26.00;45.70;;;;;;5040777;28;19925;-65
2021/04/03 13:20:04;;;;;;;;;;;26.10;45.70;;;;;;5020427;28;20036;-62
2021/04/03 13:23:10;;;;;;;2.83;1.60;;;26.00;45.80;;;;;;5027599;28;19909;-62
2021/04/03 13:26:16;;;;;;;2.38;1.40;;;26.10;46.00;;;;;;5022662;28;20037;-62
2021/04/03 13:29:22;;;;;;;2.75;1.10;;;26.00;46.00;;;;;;5026325;28;20105;-63